createdAt,value
2022-10-03T00:00:01.732Z,101131.97
2022-10-03T00:02:52.751Z,101138.03
2022-10-03T00:05:50.137Z,101136.06
2022-10-03T00:08:25.718Z,101142.13
2022-10-03T00:10:59.260Z,101133.31
2022-10-03T00:13:39.348Z,101144.84
2022-10-03T00:16:15.627Z,101152.78
2022-10-03T00:18:51.268Z,101150.16
2022-10-03T00:21:37.647Z,101159.06
2022-10-03T00:24:34.629Z,101156.50
2022-10-03T00:27:44.129Z,101154.78
2022-10-03T00:30:21.091Z,101158.47
2022-10-03T00:33:04.092Z,101169.91
2022-10-03T00:36:00.602Z,101166.28
2022-10-03T00:38:32.814Z,101168.84
2022-10-03T00:41:33.257Z,101161.59
2022-10-03T00:44:14.718Z,101173.81
2022-10-03T00:47:01.356Z,101172.84
2022-10-03T00:49:34.046Z,101174.53
2022-10-03T00:52:19.243Z,101178.97
2022-10-03T00:55:03.789Z,101172.94
2022-10-03T00:57:49.101Z,101185.38
2022-10-03T01:00:28.195Z,101185.50
2022-10-03T01:02:58.224Z,101182.88
2022-10-03T01:05:45.310Z,101194.38
2022-10-03T01:08:18.041Z,101196.16
2022-10-03T01:11:14.213Z,101190.84
2022-10-03T01:14:05.519Z,101197.09
2022-10-03T01:16:52.178Z,101202.44
2022-10-03T01:19:33.261Z,101193.66
2022-10-03T01:22:41.156Z,101198.06
2022-10-03T01:25:37.983Z,101196.31
2022-10-03T01:28:26.556Z,101206.03
2022-10-03T01:31:03.040Z,101206.03
2022-10-03T01:33:54.099Z,101209.56
2022-10-03T01:36:30.153Z,101204.28
2022-10-03T01:39:06.162Z,101206.91
2022-10-03T01:41:42.676Z,101212.19
2022-10-03T01:44:11.510Z,101210.38
2022-10-03T01:46:54.943Z,101215.66
2022-10-03T01:49:29.040Z,101220.97
2022-10-03T01:52:15.631Z,101220.97
2022-10-03T01:54:56.608Z,101228.94
2022-10-03T01:57:29.769Z,101220.13
2022-10-03T02:00:08.487Z,101227.16
2022-10-03T02:02:59.235Z,101225.41
2022-10-03T02:05:49.927Z,101226.25
2022-10-03T02:08:17.845Z,101228.94
2022-10-03T02:11:05.209Z,101234.19
2022-10-03T02:13:44.512Z,101233.34
2022-10-03T02:16:43.728Z,101233.34
2022-10-03T02:19:29.661Z,101242.22
2022-10-03T02:21:58.405Z,101237.81
2022-10-03T02:24:37.069Z,101251.97
2022-10-03T02:27:27.935Z,101244.88
2022-10-03T02:30:20.174Z,101250.03
2022-10-03T02:33:06.153Z,101248.97
2022-10-03T02:35:50.908Z,101262.91
2022-10-03T02:38:32.774Z,101269.81
2022-10-03T02:41:51.746Z,101263.44
2022-10-03T02:44:39.134Z,101262.44
2022-10-03T02:47:24.454Z,101268.53
2022-10-03T02:50:28.221Z,101275.47
2022-10-03T02:53:03.543Z,101267.44
2022-10-03T02:56:06.303Z,101270.84
2022-10-03T02:58:56.878Z,101278.59
2022-10-03T03:01:44.569Z,101280.28
2022-10-03T03:04:51.388Z,101284.56
2022-10-03T03:07:44.767Z,101295.06
2022-10-03T03:10:20.674Z,101284.41
2022-10-03T03:12:59.101Z,101281.69
2022-10-03T03:15:59.881Z,101294.81
2022-10-03T03:18:53.656Z,101291.19
2022-10-03T03:21:41.807Z,101289.38
2022-10-03T03:24:11.462Z,101299.03
2022-10-03T03:27:14.556Z,101291.00
2022-10-03T03:30:14.089Z,101295.38
2022-10-03T03:33:11.858Z,101294.41
2022-10-03T03:35:57.521Z,101290.81
2022-10-03T03:38:49.037Z,101285.41
2022-10-03T03:41:37.550Z,101298.63
2022-10-03T03:44:38.520Z,101300.44
2022-10-03T03:47:20.008Z,101299.72
2022-10-03T03:49:59.070Z,101303.41
2022-10-03T03:52:54.700Z,101302.66
2022-10-03T03:55:41.001Z,101301.72
2022-10-03T03:58:43.469Z,101307.00
2022-10-03T04:01:27.203Z,101302.63
2022-10-03T04:04:00.712Z,101307.97
2022-10-03T04:07:07.161Z,101320.28
2022-10-03T04:09:46.061Z,101312.50
2022-10-03T04:12:21.919Z,101320.53
2022-10-03T04:14:57.251Z,101318.69
2022-10-03T04:17:45.369Z,101313.25
2022-10-03T04:20:25.496Z,101313.16
2022-10-03T04:23:35.017Z,101321.09
2022-10-03T04:26:28.416Z,101311.53
2022-10-03T04:29:07.025Z,101318.50
2022-10-03T04:31:49.994Z,101317.44
2022-10-03T04:34:26.567Z,101313.81
2022-10-03T04:37:11.024Z,101312.84
2022-10-03T04:39:53.156Z,101319.97
2022-10-03T04:42:39.549Z,101321.88
2022-10-03T04:46:09.101Z,101315.88
2022-10-03T04:48:43.965Z,101317.63
2022-10-03T04:51:36.090Z,101324.59
2022-10-03T04:54:11.667Z,101320.94
2022-10-03T04:56:50.522Z,101319.94
2022-10-03T04:59:41.334Z,101323.31
2022-10-03T05:02:15.179Z,101330.28
2022-10-03T05:05:14.044Z,101329.31
2022-10-03T05:08:22.533Z,101330.19
2022-10-03T05:11:06.638Z,101330.97
2022-10-03T05:13:45.419Z,101333.47
2022-10-03T05:16:18.348Z,101333.38
2022-10-03T05:19:09.365Z,101336.81
2022-10-03T05:21:56.005Z,101340.34
2022-10-03T05:24:46.943Z,101349.97
2022-10-03T05:27:37.753Z,101355.19
2022-10-03T05:30:16.916Z,101354.22
2022-10-03T05:32:58.966Z,101354.25
2022-10-03T05:35:43.480Z,101362.28
2022-10-03T05:38:16.010Z,101370.38
2022-10-03T05:41:25.953Z,101369.66
2022-10-03T05:44:16.446Z,101378.78
2022-10-03T05:46:52.145Z,101373.84
2022-10-03T05:49:50.967Z,101378.50
2022-10-03T05:52:42.339Z,101377.88
2022-10-03T05:55:19.605Z,101362.97
2022-10-03T05:58:38.393Z,101376.25
2022-10-03T06:01:29.552Z,101386.88
2022-10-03T06:04:08.153Z,101394.84
2022-10-03T06:06:53.296Z,101392.09
2022-10-03T06:09:22.664Z,101394.53
2022-10-03T06:12:07.525Z,101395.25
2022-10-03T06:14:50.661Z,101408.44
2022-10-03T06:17:38.678Z,101398.66
2022-10-03T06:20:55.668Z,101406.53
2022-10-03T06:23:55.764Z,101420.53
2022-10-03T06:26:46.815Z,101423.16
2022-10-03T06:29:35.993Z,101428.44
2022-10-03T06:32:02.498Z,101425.78
2022-10-03T06:34:59.905Z,101424.97
2022-10-03T06:37:35.642Z,101428.53
2022-10-03T06:40:43.665Z,101432.13
2022-10-03T06:43:31.888Z,101428.69
2022-10-03T06:46:32.321Z,101427.03
2022-10-03T06:49:37.076Z,101434.22
2022-10-03T06:52:26.504Z,101427.31
2022-10-03T06:55:04.606Z,101426.59
2022-10-03T06:57:43.601Z,101419.63
2022-10-03T07:00:15.256Z,101432.13
2022-10-03T07:03:11.713Z,101429.63
2022-10-03T07:05:58.057Z,101435.09
2022-10-03T07:08:24.497Z,101438.72
2022-10-03T07:11:02.859Z,101438.88
2022-10-03T07:14:10.747Z,101441.72
2022-10-03T07:17:00.437Z,101448.16
2022-10-03T07:20:05.034Z,101444.78
2022-10-03T07:22:47.980Z,101446.75
2022-10-03T07:25:49.764Z,101455.97
2022-10-03T07:28:54.205Z,101445.84
2022-10-03T07:31:45.217Z,101439.91
2022-10-03T07:34:49.208Z,101451.72
2022-10-03T07:37:37.453Z,101451.97
2022-10-03T07:40:27.220Z,101453.28
2022-10-03T07:43:22.864Z,101450.00
2022-10-03T07:46:26.739Z,101459.22
2022-10-03T07:49:08.482Z,101453.16
2022-10-03T07:51:45.122Z,101463.69
2022-10-03T07:54:20.437Z,101471.53
2022-10-03T07:57:03.477Z,101461.78
2022-10-03T07:59:45.212Z,101466.25
2022-10-03T08:02:14.811Z,101463.59
2022-10-03T08:05:12.186Z,101466.28
2022-10-03T08:08:00.182Z,101466.34
2022-10-03T08:11:05.762Z,101469.06
2022-10-03T08:14:00.639Z,101472.72
2022-10-03T08:16:45.815Z,101475.44
2022-10-03T08:19:48.732Z,101467.59
2022-10-03T08:22:53.953Z,101473.88
2022-10-03T08:25:29.509Z,101473.06
2022-10-03T08:28:31.204Z,101476.75
2022-10-03T08:31:34.784Z,101473.31
2022-10-03T08:34:04.935Z,101473.41
2022-10-03T08:37:02.845Z,101469.09
2022-10-03T08:39:46.656Z,101473.50
2022-10-03T08:42:16.137Z,101477.16
2022-10-03T08:44:59.761Z,101478.97
2022-10-03T08:48:00.740Z,101472.00
2022-10-03T08:50:45.362Z,101469.53
2022-10-03T08:53:31.092Z,101472.31
2022-10-03T08:56:09.501Z,101479.59
2022-10-03T08:58:38.686Z,101490.53
2022-10-03T09:01:36.496Z,101475.91
2022-10-03T09:04:51.551Z,101474.97
2022-10-03T09:07:47.772Z,101481.22
2022-10-03T09:10:51.373Z,101483.00
2022-10-03T09:13:36.599Z,101483.94
2022-10-03T09:16:27.934Z,101485.69
2022-10-03T09:19:16.706Z,101482.19
2022-10-03T09:21:55.291Z,101488.56
2022-10-03T09:24:34.114Z,101482.47
2022-10-03T09:27:31.871Z,101481.69
2022-10-03T09:30:32.200Z,101488.81
2022-10-03T09:33:17.373Z,101485.38
2022-10-03T09:35:51.134Z,101487.41
2022-10-03T09:38:32.628Z,101495.69
2022-10-03T09:41:05.053Z,101490.47
2022-10-03T09:43:50.330Z,101492.31
2022-10-03T09:47:12.748Z,101489.84
2022-10-03T09:50:13.550Z,101499.75
2022-10-03T09:53:18.711Z,101491.09
2022-10-03T09:56:06.416Z,101495.63
2022-10-03T09:58:32.854Z,101494.03
2022-10-03T10:01:14.595Z,101493.25
2022-10-03T10:03:47.434Z,101488.91
2022-10-03T10:06:41.770Z,101493.41
2022-10-03T10:09:41.553Z,101491.66
2022-10-03T10:12:20.003Z,101482.81
2022-10-03T10:15:17.160Z,101488.19
2022-10-03T10:18:17.003Z,101486.31
2022-10-03T10:21:26.852Z,101484.41
2022-10-03T10:24:15.110Z,101486.03
2022-10-03T10:27:02.975Z,101499.13
2022-10-03T10:29:36.180Z,101506.84
2022-10-03T10:32:24.425Z,101503.06
2022-10-03T10:35:19.070Z,101499.34
2022-10-03T10:38:05.519Z,101501.94
2022-10-03T10:41:04.634Z,101493.94
2022-10-03T10:43:49.908Z,101487.78
2022-10-03T10:46:25.462Z,101495.06
2022-10-03T10:49:16.897Z,101495.06
2022-10-03T10:52:03.059Z,101490.66
2022-10-03T10:54:38.875Z,101493.34
2022-10-03T10:57:55.389Z,101490.03
2022-10-03T11:01:01.863Z,101485.75
2022-10-03T11:04:03.080Z,101486.75
2022-10-03T11:06:38.752Z,101486.00
2022-10-03T11:09:33.344Z,101482.44
2022-10-03T11:12:38.152Z,101489.44
2022-10-03T11:15:29.145Z,101478.63
2022-10-03T11:18:32.834Z,101495.28
2022-10-03T11:21:27.225Z,101487.19
2022-10-03T11:24:12.436Z,101488.09
2022-10-03T11:26:57.445Z,101487.25
2022-10-03T11:30:03.047Z,101492.66
2022-10-03T11:32:40.191Z,101482.09
2022-10-03T11:35:23.395Z,101484.09
2022-10-03T11:38:05.208Z,101483.50
2022-10-03T11:40:32.386Z,101479.31
2022-10-03T11:43:25.759Z,101476.72
2022-10-03T11:46:01.362Z,101463.47
2022-10-03T11:48:39.617Z,101465.31
2022-10-03T11:51:16.007Z,101472.47
2022-10-03T11:54:13.238Z,101458.19
2022-10-03T11:57:01.659Z,101458.16
2022-10-03T11:59:54.055Z,101463.47
2022-10-03T12:02:40.096Z,101467.91
2022-10-03T12:05:24.265Z,101469.59
2022-10-03T12:08:35.739Z,101472.22
2022-10-03T12:11:14.173Z,101479.28
2022-10-03T12:14:07.354Z,101476.41
2022-10-03T12:17:03.169Z,101473.66
2022-10-03T12:19:54.482Z,101464.66
2022-10-03T12:22:38.680Z,101460.88
2022-10-03T12:25:33.317Z,101449.06
2022-10-03T12:28:12.652Z,101454.28
2022-10-03T12:31:08.369Z,101457.78
2022-10-03T12:34:02.362Z,101459.53
2022-10-03T12:36:47.193Z,101456.03
2022-10-03T12:39:49.262Z,101458.69
2022-10-03T12:42:47.985Z,101452.56
2022-10-03T12:45:24.607Z,101450.91
2022-10-03T12:48:22.298Z,101444.88
2022-10-03T12:50:59.482Z,101440.53
2022-10-03T12:53:41.861Z,101433.59
2022-10-03T12:56:34.560Z,101429.22
2022-10-03T12:59:19.178Z,101438.28
2022-10-03T13:02:08.356Z,101440.25
2022-10-03T13:05:08.858Z,101436.75
2022-10-03T13:07:52.980Z,101438.56
2022-10-03T13:10:48.733Z,101444.75
2022-10-03T13:13:33.883Z,101447.44
2022-10-03T13:16:30.310Z,101446.56
2022-10-03T13:19:20.473Z,101451.91
2022-10-03T13:22:20.268Z,101447.47
2022-10-03T13:25:02.938Z,101442.13
2022-10-03T13:27:51.949Z,101447.50
2022-10-03T13:30:38.791Z,101439.47
2022-10-03T13:33:18.636Z,101446.59
2022-10-03T13:35:59.490Z,101445.69
2022-10-03T13:38:43.274Z,101448.38
2022-10-03T13:41:25.270Z,101443.94
2022-10-03T13:44:02.743Z,101433.22
2022-10-03T13:47:10.548Z,101434.09
2022-10-03T13:49:59.053Z,101438.47
2022-10-03T13:52:44.198Z,101438.44
2022-10-03T13:55:41.107Z,101436.66
2022-10-03T13:58:41.189Z,101429.63
2022-10-03T14:01:35.267Z,101427.00
2022-10-03T14:04:49.294Z,101431.47
2022-10-03T14:07:43.413Z,101427.91
2022-10-03T14:10:16.394Z,101427.91
2022-10-03T14:12:55.685Z,101428.78
2022-10-03T14:15:31.320Z,101429.69
2022-10-03T14:18:08.064Z,101432.31
2022-10-03T14:20:53.334Z,101431.44
2022-10-03T14:23:40.829Z,101425.19
2022-10-03T14:26:17.229Z,101419.81
2022-10-03T14:29:25.061Z,101426.03
2022-10-03T14:32:45.464Z,101420.66
2022-10-03T14:35:22.345Z,101418.00
2022-10-03T14:37:55.916Z,101419.78
2022-10-03T14:40:35.649Z,101420.69
2022-10-03T14:43:41.146Z,101418.97
2022-10-03T14:46:09.998Z,101417.16
2022-10-03T14:48:45.056Z,101418.03
2022-10-03T14:51:30.492Z,101425.97
2022-10-03T14:54:21.432Z,101421.53
2022-10-03T14:56:49.769Z,101435.63
2022-10-03T14:59:35.077Z,101425.59
2022-10-03T15:02:20.420Z,101420.91
2022-10-03T15:04:47.877Z,101424.25
2022-10-03T15:07:15.137Z,101431.25
2022-10-03T15:09:50.334Z,101426.66
2022-10-03T15:12:23.888Z,101421.28
2022-10-03T15:14:59.071Z,101420.31
2022-10-03T15:17:30.679Z,101423.81
2022-10-03T15:20:00.392Z,101425.56
2022-10-03T15:22:32.464Z,101418.47
2022-10-03T15:25:05.957Z,101427.38
2022-10-03T15:27:34.551Z,101422.03
2022-10-03T15:30:04.981Z,101419.41
2022-10-03T15:32:38.747Z,101416.75
2022-10-03T15:35:06.427Z,101424.72
2022-10-03T15:37:38.930Z,101413.16
2022-10-03T15:40:12.503Z,101412.22
2022-10-03T15:43:03.523Z,101413.16
2022-10-03T15:45:32.933Z,101410.41
2022-10-03T15:48:04.361Z,101408.63
2022-10-03T15:50:34.880Z,101414.81
2022-10-03T15:53:34.360Z,101413.97
2022-10-03T15:56:19.690Z,101414.91
2022-10-03T15:58:55.248Z,101414.06
2022-10-03T16:01:29.218Z,101422.06
2022-10-03T16:04:02.596Z,101416.75
2022-10-03T16:06:47.811Z,101415.84
2022-10-03T16:09:18.238Z,101406.09
2022-10-03T16:11:53.875Z,101409.66
2022-10-03T16:14:27.896Z,101401.66
2022-10-03T16:17:15.447Z,101417.59
2022-10-03T16:19:52.219Z,101412.97
2022-10-03T16:22:30.977Z,101414.59
2022-10-03T16:25:14.100Z,101403.00
2022-10-03T16:27:52.855Z,101413.53
2022-10-03T16:30:26.288Z,101406.44
2022-10-03T16:33:00.320Z,101403.75
2022-10-03T16:35:36.645Z,101401.06
2022-10-03T16:38:14.001Z,101394.88
2022-10-03T16:40:40.886Z,101394.81
2022-10-03T16:43:09.721Z,101402.78
2022-10-03T16:45:41.925Z,101408.09
2022-10-03T16:48:37.777Z,101399.22
2022-10-03T16:51:13.719Z,101402.78
2022-10-03T16:53:45.029Z,101395.69
2022-10-03T16:56:17.506Z,101401.00
2022-10-03T16:58:50.694Z,101399.28
2022-10-03T17:01:36.421Z,101404.63
2022-10-03T17:04:17.882Z,101397.56
2022-10-03T17:06:49.957Z,101404.72
2022-10-03T17:09:25.869Z,101403.91
2022-10-03T17:11:58.805Z,101403.94
2022-10-03T17:14:32.110Z,101401.28
2022-10-03T17:17:05.328Z,101403.09
2022-10-03T17:19:56.016Z,101406.66
2022-10-03T17:22:32.059Z,101412.94
2022-10-03T17:25:05.009Z,101412.06
2022-10-03T17:27:38.524Z,101418.28
2022-10-03T17:30:14.283Z,101420.94
2022-10-03T17:32:44.925Z,101419.19
2022-10-03T17:35:34.196Z,101422.69
2022-10-03T17:39:01.855Z,101416.53
2022-10-03T17:41:27.769Z,101410.31
2022-10-03T17:44:26.047Z,101415.63
2022-10-03T17:47:02.944Z,101413.88
2022-10-03T17:50:02.145Z,101420.97
2022-10-03T17:52:30.617Z,101413.88
2022-10-03T17:55:02.175Z,101419.22
2022-10-03T17:57:36.855Z,101414.78
2022-10-03T18:00:17.872Z,101411.22
2022-10-03T18:02:59.336Z,101416.53
2022-10-03T18:05:43.271Z,101407.63
2022-10-03T18:08:39.048Z,101416.50
2022-10-03T18:11:10.120Z,101418.25
2022-10-03T18:13:45.179Z,101409.38
2022-10-03T18:16:24.619Z,101418.19
2022-10-03T18:19:05.611Z,101423.53
2022-10-03T18:22:02.360Z,101427.03
2022-10-03T18:24:40.748Z,101419.03
2022-10-03T18:27:31.777Z,101412.81
2022-10-03T18:30:18.845Z,101422.56
2022-10-03T18:32:47.726Z,101417.25
2022-10-03T18:35:17.918Z,101418.13
2022-10-03T18:37:44.493Z,101412.81
2022-10-03T18:40:28.500Z,101417.22
2022-10-03T18:42:56.054Z,101410.97
2022-10-03T18:45:43.805Z,101412.75
2022-10-03T18:48:17.528Z,101414.53
2022-10-03T18:50:59.784Z,101415.41
2022-10-03T18:53:36.485Z,101418.97
2022-10-03T18:56:11.504Z,101423.44
2022-10-03T18:58:51.883Z,101418.13
2022-10-03T19:01:31.720Z,101418.97
2022-10-03T19:04:07.342Z,101417.22
2022-10-03T19:06:42.004Z,101416.28
2022-10-03T19:09:16.069Z,101411.78
2022-10-03T19:11:45.695Z,101415.16
2022-10-03T19:14:18.239Z,101420.44
2022-10-03T19:17:03.689Z,101415.00
2022-10-03T19:19:48.802Z,101410.59
2022-10-03T19:22:19.773Z,101411.53
2022-10-03T19:24:58.809Z,101411.53
2022-10-03T19:27:41.779Z,101410.59
2022-10-03T19:30:09.111Z,101416.78
2022-10-03T19:32:50.460Z,101417.69
2022-10-03T19:35:21.839Z,101415.94
2022-10-03T19:37:53.153Z,101417.59
2022-10-03T19:40:28.344Z,101415.84
2022-10-03T19:43:19.317Z,101415.81
2022-10-03T19:45:53.188Z,101414.94
2022-10-03T19:48:22.499Z,101421.16
2022-10-03T19:50:49.251Z,101416.78
2022-10-03T19:53:18.351Z,101425.63
2022-10-03T19:55:47.219Z,101408.75
2022-10-03T19:58:32.403Z,101419.28
2022-10-03T20:01:01.866Z,101422.78
2022-10-03T20:03:28.376Z,101427.22
2022-10-03T20:06:01.663Z,101418.38
2022-10-03T20:08:34.336Z,101423.69
2022-10-03T20:11:57.045Z,101424.59
2022-10-03T20:14:28.986Z,101430.84
2022-10-03T20:16:59.085Z,101434.34
2022-10-03T20:19:28.939Z,101423.72
2022-10-03T20:21:57.818Z,101430.84
2022-10-03T20:24:39.088Z,101420.19
2022-10-03T20:27:24.312Z,101426.38
2022-10-03T20:30:06.026Z,101432.50
2022-10-03T20:32:36.381Z,101428.00
2022-10-03T20:35:03.895Z,101429.72
2022-10-03T20:37:48.120Z,101426.13
2022-10-03T20:40:16.155Z,101429.69
2022-10-03T20:42:47.594Z,101423.47
2022-10-03T20:45:20.664Z,101423.44
2022-10-03T20:48:02.398Z,101424.22
2022-10-03T20:50:42.749Z,101414.38
2022-10-03T20:53:31.125Z,101425.81
2022-10-03T20:56:06.326Z,101425.75
2022-10-03T20:58:50.784Z,101422.13
2022-10-03T21:01:22.360Z,101427.41
2022-10-03T21:04:14.661Z,101426.47
2022-10-03T21:07:06.290Z,101421.09
2022-10-03T21:09:50.507Z,101421.94
2022-10-03T21:12:29.115Z,101421.94
2022-10-03T21:15:14.417Z,101424.59
2022-10-03T21:17:44.084Z,101429.88
2022-10-03T21:20:18.769Z,101415.66
2022-10-03T21:22:50.394Z,101420.78
2022-10-03T21:25:37.295Z,101417.16
2022-10-03T21:28:04.927Z,101422.41
2022-10-03T21:31:15.290Z,101418.78
2022-10-03T21:34:06.349Z,101421.38
2022-10-03T21:36:51.232Z,101416.78
2022-10-03T21:39:32.627Z,101421.09
2022-10-03T21:42:18.928Z,101421.00
2022-10-03T21:45:12.927Z,101420.06
2022-10-03T21:47:50.827Z,101414.72
2022-10-03T21:50:29.981Z,101402.38
2022-10-03T21:53:01.283Z,101401.50
2022-10-03T21:55:56.385Z,101404.09
2022-10-03T21:58:41.161Z,101406.75
2022-10-03T22:01:21.445Z,101407.66
2022-10-03T22:03:59.879Z,101404.97
2022-10-03T22:06:33.094Z,101399.53
2022-10-03T22:09:06.082Z,101405.66
2022-10-03T22:11:46.711Z,101402.94
2022-10-03T22:14:31.888Z,101399.28
2022-10-03T22:17:20.589Z,101390.31
2022-10-03T22:19:58.031Z,101389.31
2022-10-03T22:22:24.488Z,101387.41
2022-10-03T22:25:14.668Z,101382.81
2022-10-03T22:27:45.477Z,101381.84
2022-10-03T22:30:18.612Z,101381.78
2022-10-03T22:33:10.519Z,101383.47
2022-10-03T22:35:54.904Z,101384.25
2022-10-03T22:38:24.852Z,101384.16
2022-10-03T22:40:54.962Z,101379.72
2022-10-03T22:43:23.211Z,101385.00
2022-10-03T22:45:53.386Z,101387.56
2022-10-03T22:48:28.185Z,101374.22
2022-10-03T22:50:56.239Z,101376.78
2022-10-03T22:53:28.335Z,101384.66
2022-10-03T22:56:00.925Z,101374.81
2022-10-03T22:58:30.495Z,101377.38
2022-10-03T23:00:59.546Z,101384.38
2022-10-03T23:03:32.767Z,101374.59
2022-10-03T23:06:08.288Z,101373.69
2022-10-03T23:08:51.551Z,101367.38
2022-10-03T23:11:25.015Z,101369.94
2022-10-03T23:13:52.047Z,101361.06
2022-10-03T23:16:36.771Z,101367.19
2022-10-03T23:19:34.315Z,101363.63
2022-10-03T23:22:01.417Z,101373.38
2022-10-03T23:24:49.097Z,101369.00
2022-10-03T23:27:28.953Z,101371.66
2022-10-03T23:30:16.897Z,101371.66
2022-10-03T23:32:46.428Z,101382.31
2022-10-03T23:35:18.816Z,101377.91
2022-10-03T23:37:47.538Z,101384.94
2022-10-03T23:40:27.829Z,101377.84
2022-10-03T23:43:23.201Z,101382.25
2022-10-03T23:45:53.406Z,101389.28
2022-10-03T23:48:23.935Z,101390.13
2022-10-03T23:50:57.141Z,101384.78
2022-10-03T23:53:39.949Z,101384.75
2022-10-03T23:56:26.741Z,101383.81
2022-10-03T23:59:02.283Z,101387.25
